Time;durP1;ratioP1;P1;durP2;ratioP2;P2;SDS_P1;SDS_P2;PMS_P1;PMS_P2;Temp;Humidity;BMP_temperature;BMP_pressure;BME280_temperature;BME280_humidity;BME280_pressure;Samples;Min_cycle;Max_cycle;Signal;HPM_P1;HPM_P2
2022/11/16 00:01:05;;;;;;;7.10;6.40;;;;;;;;;;5065584;28;20361;-66
2022/11/16 00:03:32;;;;;;;9.68;7.82;;;;;;;;;;5065528;28;20403;-66
2022/11/16 00:05:59;;;;;;;14.88;8.27;;;;;;;;;;5065687;28;20193;-66
2022/11/16 00:08:25;;;;;;;15.02;10.02;;;;;;;;;;5065347;28;20372;-66
2022/11/16 00:10:52;;;;;;;13.85;9.88;;;;;;;;;;5065268;28;20224;-66
2022/11/16 00:13:18;;;;;;;16.45;10.13;;;;;;;;;;5065249;28;20205;-66
2022/11/16 00:15:53;;;;;;;23.25;10.70;;;;;;;;;;5065479;28;20204;-66
2022/11/16 00:18:20;;;;;;;14.20;9.90;;;;;;;;;;5064846;28;20205;-66
2022/11/16 00:20:47;;;;;;;14.43;10.40;;;;;;;;;;5065369;28;20197;-67
2022/11/16 00:23:13;;;;;;;11.73;9.65;;;;;;;;;;5065212;28;20527;-67
2022/11/16 00:25:39;;;;;;;13.40;9.93;;;;;;;;;;5065241;28;20272;-67
2022/11/16 00:28:05;;;;;;;13.43;10.18;;;;;;;;;;5064774;28;20218;-67
2022/11/16 00:30:32;;;;;;;11.93;9.52;;;;;;;;;;5065079;28;20369;-66
2022/11/16 00:32:59;;;;;;;14.88;9.85;;;;;;;;;;5064945;28;20205;-66
2022/11/16 00:35:27;;;;;;;17.58;9.93;;;;;;;;;;5065207;28;20504;-66
2022/11/16 00:37:53;;;;;;;13.35;9.10;;;;;;;;;;5064689;28;20292;-66
2022/11/16 00:40:19;;;;;;;9.88;8.68;;;;;;;;;;5064812;28;20197;-66
2022/11/16 00:42:46;;;;;;;12.88;8.95;;;;;;;;;;5064756;28;20198;-66
2022/11/16 00:45:12;;;;;;;9.15;7.95;;;;;;;;;;5064617;28;20197;-66
2022/11/16 00:47:38;;;;;;;9.38;8.38;;;;;;;;;;5064673;28;20193;-66
2022/11/16 00:50:05;;;;;;;12.57;8.52;;;;;;;;;;5064671;28;20205;-66
2022/11/16 00:52:33;;;;;;;15.02;8.80;;;;;;;;;;5064409;28;20197;-66
2022/11/16 00:54:59;;;;;;;10.02;8.77;;;;;;;;;;5064546;28;20422;-66
2022/11/16 00:57:25;;;;;;;10.55;8.23;;;;;;;;;;5064373;28;20212;-66
2022/11/16 00:59:52;;;;;;;9.02;8.07;;;;;;;;;;5063750;28;20203;-66
2022/11/16 01:02:18;;;;;;;10.00;8.38;;;;;;;;;;5064372;28;20197;-66
2022/11/16 01:04:44;;;;;;;9.30;7.93;;;;;;;;;;5063514;28;20204;-66
2022/11/16 01:07:10;;;;;;;9.70;8.32;;;;;;;;;;5064441;28;20363;-66
2022/11/16 01:09:38;;;;;;;8.77;7.50;;;;;;;;;;5064107;28;20197;-66
2022/11/16 01:12:11;;;;;;;12.38;7.63;;;;;;;;;;5064150;28;20462;-66
2022/11/16 01:14:38;;;;;;;8.18;7.35;;;;;;;;;;5064206;28;20263;-66
2022/11/16 01:17:04;;;;;;;11.82;8.48;;;;;;;;;;5064018;28;20228;-66
2022/11/16 01:19:31;;;;;;;14.50;8.93;;;;;;;;;;5063848;28;20228;-66
2022/11/16 01:21:57;;;;;;;10.07;9.07;;;;;;;;;;5064126;28;20204;-66
2022/11/16 01:24:24;;;;;;;11.15;9.00;;;;;;;;;;5064099;28;20196;-66
2022/11/16 01:26:55;;;;;;;12.02;9.52;;;;;;;;;;5063882;28;20194;-66
2022/11/16 01:29:21;;;;;;;12.95;10.05;;;;;;;;;;5063747;28;20224;-67
2022/11/16 01:31:48;;;;;;;12.20;9.05;;;;;;;;;;5063972;28;20434;-67
2022/11/16 01:34:14;;;;;;;9.73;8.73;;;;;;;;;;5064123;28;20203;-66
2022/11/16 01:36:40;;;;;;;11.20;9.20;;;;;;;;;;5063803;28;20228;-66
2022/11/16 01:39:07;;;;;;;13.27;9.23;;;;;;;;;;5063452;28;20197;-66
2022/11/16 01:41:34;;;;;;;13.57;8.32;;;;;;;;;;5063497;28;20197;-66
2022/11/16 01:44:02;;;;;;;11.95;8.52;;;;;;;;;;5063840;28;20243;-66
2022/11/16 01:46:29;;;;;;;11.95;8.38;;;;;;;;;;5063797;28;20381;-66
2022/11/16 01:48:59;;;;;;;13.50;8.93;;;;;;;;;;5063449;28;20235;-66
2022/11/16 01:51:26;;;;;;;11.45;9.30;;;;;;;;;;5063557;28;20402;-66
2022/11/16 01:53:52;;;;;;;10.43;9.35;;;;;;;;;;5063419;28;20446;-66
2022/11/16 01:56:19;;;;;;;12.63;9.52;;;;;;;;;;5063230;28;20248;-66
2022/11/16 01:58:46;;;;;;;12.45;9.73;;;;;;;;;;5063346;28;20244;-66
2022/11/16 02:01:13;;;;;;;12.35;10.35;;;;;;;;;;5063414;28;20508;-66
2022/11/16 02:03:40;;;;;;;12.55;8.68;;;;;;;;;;5063358;28;20204;-66
2022/11/16 02:06:13;;;;;;;9.52;8.50;;;;;;;;;;5063254;28;20201;-66
2022/11/16 02:11:42;;;;;;;12.48;8.23;;;;;;;;;;5062466;28;20239;-66
2022/11/16 02:14:16;;;;;;;9.85;8.50;;;;;;;;;;5062814;28;20215;-66
2022/11/16 02:16:49;;;;;;;10.00;8.57;;;;;;;;;;5062929;28;20227;-66
2022/11/16 02:19:29;;;;;;;11.00;7.88;;;;;;;;;;5062715;28;20205;-66
2022/11/16 02:21:59;;;;;;;8.50;7.63;;;;;;;;;;5063078;28;20205;-66
2022/11/16 02:24:43;;;;;;;8.77;7.97;;;;;;;;;;5062828;28;20398;-66
2022/11/16 02:27:27;;;;;;;10.32;7.95;;;;;;;;;;5062882;28;20208;-66
2022/11/16 02:29:55;;;;;;;11.95;9.00;;;;;;;;;;5062626;28;20197;-66
2022/11/16 02:32:25;;;;;;;10.25;7.75;;;;;;;;;;5062735;28;20527;-66
2022/11/16 02:34:54;;;;;;;9.10;8.20;;;;;;;;;;5062597;28;20211;-66
2022/11/16 02:37:22;;;;;;;11.23;8.73;;;;;;;;;;5062379;28;20401;-66
2022/11/16 02:39:51;;;;;;;9.70;8.70;;;;;;;;;;5062272;28;20203;-66
2022/11/16 02:42:20;;;;;;;11.52;8.80;;;;;;;;;;5062947;28;20205;-66
2022/11/16 02:44:48;;;;;;;10.30;9.23;;;;;;;;;;5062539;28;20201;-66
2022/11/16 02:47:18;;;;;;;12.73;9.40;;;;;;;;;;5062975;28;20193;-66
2022/11/16 02:49:47;;;;;;;9.63;8.32;;;;;;;;;;5062074;28;20205;-66
2022/11/16 02:52:15;;;;;;;11.95;9.73;;;;;;;;;;5062496;28;20401;-66
2022/11/16 02:54:41;;;;;;;13.43;9.15;;;;;;;;;;5062200;28;20200;-66
2022/11/16 02:57:26;;;;;;;9.93;8.45;;;;;;;;;;5062448;28;20224;-66
2022/11/16 02:59:55;;;;;;;12.10;9.00;;;;;;;;;;5062031;28;20203;-66
2022/11/16 03:02:26;;;;;;;10.63;8.50;;;;;;;;;;5062152;28;20219;-66
2022/11/16 03:04:56;;;;;;;9.85;8.85;;;;;;;;;;5062419;28;20393;-66
2022/11/16 03:07:30;;;;;;;10.50;8.23;;;;;;;;;;5062231;28;20200;-66
2022/11/16 03:09:57;;;;;;;11.02;8.63;;;;;;;;;;5061874;28;20727;-66
2022/11/16 03:12:26;;;;;;;9.13;8.23;;;;;;;;;;5062070;28;20201;-66
2022/11/16 03:14:54;;;;;;;9.93;8.77;;;;;;;;;;5062138;28;20205;-66
2022/11/16 03:17:21;;;;;;;9.68;8.70;;;;;;;;;;5062065;28;20231;-66
2022/11/16 03:19:53;;;;;;;10.05;8.70;;;;;;;;;;5061605;28;20207;-66
2022/11/16 03:22:23;;;;;;;11.85;8.23;;;;;;;;;;5062009;28;20204;-66
2022/11/16 03:24:50;;;;;;;11.25;8.10;;;;;;;;;;5062148;28;20203;-66
2022/11/16 03:27:20;;;;;;;11.07;8.88;;;;;;;;;;5061010;28;20273;-66
2022/11/16 03:29:53;;;;;;;12.13;8.90;;;;;;;;;;5061730;28;20197;-66
2022/11/16 03:32:21;;;;;;;13.55;9.13;;;;;;;;;;5062060;28;20217;-66
2022/11/16 03:34:54;;;;;;;10.10;9.10;;;;;;;;;;5061691;28;20208;-66
2022/11/16 03:37:21;;;;;;;9.82;8.77;;;;;;;;;;5061608;28;20221;-66
2022/11/16 03:39:48;;;;;;;14.05;9.00;;;;;;;;;;5061465;28;20538;-66
2022/11/16 03:42:15;;;;;;;10.40;9.27;;;;;;;;;;5061597;28;20197;-66
2022/11/16 03:44:43;;;;;;;11.32;9.55;;;;;;;;;;5061892;28;20196;-66
2022/11/16 03:47:09;;;;;;;10.68;9.18;;;;;;;;;;5061770;28;20386;-66
2022/11/16 03:49:35;;;;;;;13.30;9.00;;;;;;;;;;5061329;28;20197;-66
2022/11/16 03:52:03;;;;;;;10.23;8.23;;;;;;;;;;5061571;28;20231;-66
2022/11/16 03:54:29;;;;;;;10.75;9.75;;;;;;;;;;5061590;28;20223;-66
2022/11/16 03:56:56;;;;;;;10.43;9.02;;;;;;;;;;5061732;28;20223;-66
2022/11/16 03:59:22;;;;;;;9.65;8.52;;;;;;;;;;5061312;28;20204;-66
2022/11/16 04:01:48;;;;;;;9.35;8.15;;;;;;;;;;5061620;28;20197;-66
2022/11/16 04:26:17;;;;;;;12.32;9.27;;;;;;;;;;5061272;28;20211;-66
2022/11/16 04:28:42;;;;;;;12.65;9.23;;;;;;;;;;5060972;28;20244;-66
2022/11/16 04:39:29;;;;;;;12.35;8.68;;;;;;;;;;5040299;28;20577;-66
2022/11/16 04:42:14;;;;;;;10.60;8.43;;;;;;;;;;5064828;28;20209;-66
2022/11/16 04:47:24;;;;;;;11.00;8.85;;;;;;;;;;5064809;28;20220;-66
2022/11/16 04:49:51;;;;;;;10.32;9.00;;;;;;;;;;5064458;28;20276;-66
2022/11/16 04:52:17;;;;;;;10.32;9.25;;;;;;;;;;5064667;28;20268;-66
2022/11/16 04:54:43;;;;;;;25.98;18.38;;;;;;;;;;5064475;28;20197;-66
2022/11/16 04:57:11;;;;;;;19.20;14.43;;;;;;;;;;5064717;28;20528;-66
2022/11/16 04:59:37;;;;;;;15.10;11.18;;;;;;;;;;5064635;28;20212;-66
2022/11/16 05:02:09;;;;;;;13.38;10.25;;;;;;;;;;5064566;28;20500;-66
2022/11/16 05:04:36;;;;;;;13.63;9.88;;;;;;;;;;5064563;28;20530;-66
2022/11/16 05:07:02;;;;;;;17.05;10.65;;;;;;;;;;5064264;28;20349;-66
2022/11/16 05:09:28;;;;;;;15.88;12.15;;;;;;;;;;5064088;28;20205;-66
2022/11/16 05:11:55;;;;;;;11.52;9.38;;;;;;;;;;5064316;28;20208;-66
2022/11/16 05:14:22;;;;;;;10.52;9.43;;;;;;;;;;5064168;28;20197;-66
2022/11/16 05:16:49;;;;;;;10.70;9.60;;;;;;;;;;5064331;28;20428;-66
2022/11/16 05:21:59;;;;;;;11.43;10.13;;;;;;;;;;5064145;28;20196;-67
2022/11/16 05:24:34;;;;;;;12.80;10.10;;;;;;;;;;5064472;28;20507;-67
2022/11/16 05:27:01;;;;;;;15.80;11.23;;;;;;;;;;5064113;28;20231;-67
2022/11/16 05:29:29;;;;;;;12.48;10.30;;;;;;;;;;5063692;28;20217;-66
2022/11/16 05:31:55;;;;;;;12.30;9.85;;;;;;;;;;5063956;28;20208;-67
2022/11/16 05:34:21;;;;;;;8.43;7.68;;;;;;;;;;5063774;28;20205;-67
2022/11/16 05:36:47;;;;;;;12.27;8.93;;;;;;;;;;5063914;28;20504;-67
2022/11/16 05:39:14;;;;;;;9.35;8.43;;;;;;;;;;5063634;28;20201;-67
2022/11/16 05:41:40;;;;;;;11.10;9.27;;;;;;;;;;5063805;28;20197;-66
2022/11/16 05:44:06;;;;;;;10.88;9.10;;;;;;;;;;5063636;28;20212;-66
2022/11/16 05:46:34;;;;;;;11.68;8.45;;;;;;;;;;5063765;28;20516;-66
2022/11/16 05:49:00;;;;;;;11.10;9.73;;;;;;;;;;5062697;28;20212;-66
2022/11/16 05:51:26;;;;;;;12.85;9.73;;;;;;;;;;5063598;28;20398;-66
2022/11/16 05:53:53;;;;;;;9.88;8.90;;;;;;;;;;5063753;28;20280;-66
2022/11/16 05:56:19;;;;;;;10.05;8.85;;;;;;;;;;5063706;28;20414;-66
2022/11/16 05:58:46;;;;;;;10.20;8.80;;;;;;;;;;5063122;28;20227;-66
2022/11/16 06:01:12;;;;;;;9.45;7.80;;;;;;;;;;5063373;28;20203;-66
2022/11/16 06:03:39;;;;;;;7.90;6.90;;;;;;;;;;5063586;28;20396;-66
2022/11/16 06:06:06;;;;;;;8.52;7.82;;;;;;;;;;5063476;28;20205;-66
2022/11/16 06:08:32;;;;;;;8.95;8.07;;;;;;;;;;5063142;28;20268;-66
2022/11/16 06:11:01;;;;;;;11.88;9.07;;;;;;;;;;5063182;28;20197;-67
2022/11/16 06:13:27;;;;;;;9.35;7.82;;;;;;;;;;5063032;28;20505;-67
2022/11/16 06:15:53;;;;;;;8.05;7.35;;;;;;;;;;5062874;28;20197;-67
2022/11/16 06:18:20;;;;;;;8.77;7.97;;;;;;;;;;5062759;28;20221;-67
2022/11/16 06:20:47;;;;;;;9.65;8.23;;;;;;;;;;5062963;28;20197;-67
2022/11/16 06:23:14;;;;;;;11.55;9.07;;;;;;;;;;5062972;28;20205;-67
2022/11/16 06:25:40;;;;;;;11.95;10.15;;;;;;;;;;5062863;28;20205;-67
2022/11/16 06:28:07;;;;;;;13.30;9.95;;;;;;;;;;5062473;28;20216;-67
2022/11/16 06:30:33;;;;;;;13.82;9.68;;;;;;;;;;5062688;28;20204;-68
2022/11/16 06:32:59;;;;;;;13.35;9.30;;;;;;;;;;5062836;28;20205;-67
2022/11/16 06:35:26;;;;;;;12.23;9.68;;;;;;;;;;5062810;28;20507;-67
2022/11/16 06:37:54;;;;;;;12.63;10.23;;;;;;;;;;5062442;28;20217;-67
2022/11/16 06:40:20;;;;;;;12.32;10.45;;;;;;;;;;5062630;28;20251;-67
2022/11/16 06:42:46;;;;;;;15.63;11.10;;;;;;;;;;5062557;28;20197;-67
2022/11/16 06:45:13;;;;;;;13.02;10.52;;;;;;;;;;5062401;28;20400;-67
2022/11/16 06:47:39;;;;;;;18.83;12.63;;;;;;;;;;5062404;28;20193;-67
2022/11/16 06:50:05;;;;;;;13.15;9.98;;;;;;;;;;5062379;28;20216;-67
2022/11/16 06:52:32;;;;;;;13.63;11.05;;;;;;;;;;5062263;28;20203;-67
2022/11/16 06:54:59;;;;;;;14.10;9.95;;;;;;;;;;5062105;28;20504;-67
2022/11/16 06:57:26;;;;;;;15.25;10.73;;;;;;;;;;5061899;28;20217;-67
2022/11/16 06:59:52;;;;;;;14.32;11.38;;;;;;;;;;5062066;28;20209;-67
2022/11/16 07:02:20;;;;;;;12.60;10.57;;;;;;;;;;5049939;28;20213;-58
2022/11/16 07:04:46;;;;;;;10.02;9.00;;;;;;;;;;5050023;28;20216;-57
2022/11/16 07:07:12;;;;;;;9.73;8.77;;;;;;;;;;5056072;28;20524;-56
2022/11/16 07:09:39;;;;;;;8.93;8.02;;;;;;;;;;5044363;28;20210;-58
2022/11/16 07:12:06;;;;;;;9.75;7.68;;;;;;;;;;5052588;28;20201;-58
2022/11/16 07:14:33;;;;;;;8.15;7.40;;;;;;;;;;5047683;28;20217;-58
2022/11/16 07:16:59;;;;;;;8.48;7.25;;;;;;;;;;5056123;28;20520;-56
2022/11/16 07:19:25;;;;;;;9.35;8.45;;;;;;;;;;5040968;28;20231;-59
2022/11/16 07:21:51;;;;;;;10.27;8.98;;;;;;;;;;5055895;28;20205;-58
2022/11/16 07:24:18;;;;;;;10.48;8.55;;;;;;;;;;5055399;28;20361;-58
2022/11/16 07:26:44;;;;;;;11.43;8.75;;;;;;;;;;5049533;28;20209;-58
2022/11/16 07:29:12;;;;;;;12.55;9.27;;;;;;;;;;5052465;28;20232;-58
2022/11/16 07:31:38;;;;;;;9.23;8.32;;;;;;;;;;5048264;28;20213;-57
2022/11/16 07:34:05;;;;;;;9.73;8.73;;;;;;;;;;5036464;28;20236;-58
2022/11/16 07:36:31;;;;;;;10.70;9.05;;;;;;;;;;5053428;28;20212;-58
2022/11/16 07:38:57;;;;;;;13.48;10.48;;;;;;;;;;5054572;28;20225;-57
2022/11/16 07:41:24;;;;;;;16.77;11.25;;;;;;;;;;5053990;28;20223;-57
2022/11/16 07:43:50;;;;;;;18.05;13.05;;;;;;;;;;5055040;28;20516;-57
2022/11/16 07:46:20;;;;;;;19.58;11.90;;;;;;;;;;5054511;28;20508;-58
2022/11/16 07:48:46;;;;;;;17.98;11.25;;;;;;;;;;5039819;28;20413;-57
2022/11/16 07:51:13;;;;;;;13.57;10.35;;;;;;;;;;5033434;28;20220;-57
2022/11/16 07:53:40;;;;;;;9.75;8.75;;;;;;;;;;5033604;28;20217;-57
2022/11/16 07:56:07;;;;;;;15.25;9.57;;;;;;;;;;5033812;28;20616;-56
2022/11/16 07:58:33;;;;;;;13.23;10.60;;;;;;;;;;5052958;28;20442;-58
2022/11/16 08:01:03;;;;;;;16.10;10.90;;;;;;;;;;5054471;28;20296;-57
2022/11/16 08:03:31;;;;;;;22.27;11.68;;;;;;;;;;5040548;28;20275;-56
2022/11/16 08:05:58;;;;;;;15.45;10.60;;;;;;;;;;5036592;28;20227;-57
2022/11/16 08:08:24;;;;;;;21.73;11.60;;;;;;;;;;5048867;28;20202;-58
2022/11/16 08:10:51;;;;;;;18.20;11.27;;;;;;;;;;5048978;28;20228;-57
2022/11/16 08:13:17;;;;;;;21.33;12.45;;;;;;;;;;5056579;28;20219;-58
2022/11/16 08:15:43;;;;;;;15.32;11.50;;;;;;;;;;5058405;28;20220;-58
2022/11/16 08:18:09;;;;;;;17.90;11.35;;;;;;;;;;5057675;28;20225;-58
2022/11/16 08:20:37;;;;;;;19.27;11.68;;;;;;;;;;5058812;28;20600;-57
2022/11/16 08:23:03;;;;;;;17.58;11.02;;;;;;;;;;5057825;28;20236;-59
2022/11/16 08:25:30;;;;;;;14.55;10.73;;;;;;;;;;5057724;28;20223;-58
2022/11/16 08:27:56;;;;;;;15.43;10.40;;;;;;;;;;5057583;28;20232;-59
2022/11/16 08:30:22;;;;;;;14.65;10.30;;;;;;;;;;5057920;28;20213;-57
2022/11/16 08:32:48;;;;;;;13.00;9.88;;;;;;;;;;5043374;28;20213;-58
2022/11/16 08:35:15;;;;;;;16.02;10.43;;;;;;;;;;5038696;28;20546;-59
2022/11/16 08:37:42;;;;;;;11.05;9.80;;;;;;;;;;5037888;28;20232;-58
2022/11/16 08:40:09;;;;;;;14.23;10.13;;;;;;;;;;5037745;28;20521;-57
2022/11/16 08:42:35;;;;;;;11.32;10.13;;;;;;;;;;5048493;28;20213;-58
2022/11/16 08:45:02;;;;;;;13.93;10.45;;;;;;;;;;5057254;28;20213;-56
2022/11/16 08:47:28;;;;;;;12.38;9.85;;;;;;;;;;5047559;28;20214;-57
2022/11/16 08:49:54;;;;;;;13.90;10.00;;;;;;;;;;5036912;28;20569;-58
2022/11/16 08:52:21;;;;;;;14.93;8.70;;;;;;;;;;5050785;28;20219;-57
2022/11/16 08:54:48;;;;;;;11.82;9.77;;;;;;;;;;5057591;28;20209;-57
2022/11/16 08:57:14;;;;;;;11.40;9.82;;;;;;;;;;5057321;28;20217;-57
2022/11/16 08:59:41;;;;;;;11.95;9.70;;;;;;;;;;5044063;28;20241;-57
2022/11/16 09:02:07;;;;;;;12.77;9.15;;;;;;;;;;5038115;28;20389;-56
2022/11/16 09:04:33;;;;;;;10.85;8.90;;;;;;;;;;5036965;28;20221;-57
2022/11/16 09:07:00;;;;;;;10.43;8.00;;;;;;;;;;5038094;28;20228;-55
2022/11/16 09:09:26;;;;;;;9.93;8.13;;;;;;;;;;5051748;28;20205;-57
2022/11/16 09:11:55;;;;;;;9.90;7.57;;;;;;;;;;5043930;28;20409;-56
2022/11/16 09:14:21;;;;;;;8.63;6.57;;;;;;;;;;5036320;28;20213;-56
2022/11/16 09:16:48;;;;;;;6.90;6.20;;;;;;;;;;5037418;28;20222;-58
2022/11/16 09:19:14;;;;;;;6.15;5.57;;;;;;;;;;5035976;28;20731;-57
2022/11/16 09:21:40;;;;;;;10.23;6.00;;;;;;;;;;5036805;28;20217;-57
2022/11/16 09:24:09;;;;;;;8.30;5.80;;;;;;;;;;5036097;28;20277;-57
2022/11/16 09:26:35;;;;;;;7.95;5.57;;;;;;;;;;5042344;28;20217;-55
2022/11/16 09:29:03;;;;;;;5.65;5.15;;;;;;;;;;5057069;28;20231;-55
2022/11/16 09:31:33;;;;;;;4.38;4.07;;;;;;;;;;5056869;28;20213;-56
2022/11/16 09:33:59;;;;;;;4.93;4.20;;;;;;;;;;5056753;28;20208;-56
2022/11/16 09:36:27;;;;;;;3.20;3.08;;;;;;;;;;5050059;28;20437;-57
2022/11/16 09:38:53;;;;;;;4.18;3.88;;;;;;;;;;5041088;28;20461;-58
2022/11/16 09:41:29;;;;;;;3.70;3.40;;;;;;;;;;5056445;28;20213;-57
2022/11/16 09:44:01;;;;;;;3.30;3.03;;;;;;;;;;5056460;28;20235;-57
2022/11/16 09:46:32;;;;;;;3.17;2.55;;;;;;;;;;5057462;28;20219;-57
2022/11/16 09:48:59;;;;;;;1.50;1.50;;;;;;;;;;5040629;28;20299;-57
2022/11/16 09:51:28;;;;;;;2.10;1.40;;;;;;;;;;5056988;28;20209;-57
2022/11/16 09:53:58;;;;;;;1.00;0.98;;;;;;;;;;5055958;28;20245;-57
2022/11/16 09:56:25;;;;;;;2.50;1.00;;;;;;;;;;5043599;28;20521;-57
2022/11/16 09:58:55;;;;;;;3.13;1.63;;;;;;;;;;5036046;28;20233;-61
2022/11/16 10:01:23;;;;;;;2.85;1.83;;;;;;;;;;5052732;28;20217;-58
2022/11/16 10:03:53;;;;;;;4.45;1.98;;;;;;;;;;5035819;28;20224;-58
2022/11/16 10:06:21;;;;;;;1.70;1.60;;;;;;;;;;5036290;28;20415;-58
2022/11/16 10:08:48;;;;;;;1.60;1.52;;;;;;;;;;5036631;28;20507;-58
2022/11/16 10:11:38;;;;;;;1.65;1.55;;;;;;;;;;5034896;28;20216;-58
2022/11/16 10:14:11;;;;;;;2.88;2.17;;;;;;;;;;5025977;28;20221;-58
2022/11/16 10:16:40;;;;;;;2.88;1.90;;;;;;;;;;5035823;28;20241;-58
2022/11/16 10:19:13;;;;;;;2.85;2.63;;;;;;;;;;5035871;28;20235;-57
2022/11/16 10:21:44;;;;;;;3.08;2.22;;;;;;;;;;5035224;28;20551;-57
2022/11/16 10:24:22;;;;;;;2.03;1.92;;;;;;;;;;5036308;28;20213;-57
2022/11/16 10:26:54;;;;;;;2.70;2.50;;;;;;;;;;5036078;28;20213;-58
2022/11/16 10:29:26;;;;;;;2.50;2.40;;;;;;;;;;5035798;28;20236;-57
2022/11/16 10:32:00;;;;;;;4.85;2.55;;;;;;;;;;5034864;28;20221;-57
2022/11/16 10:34:29;;;;;;;4.57;2.67;;;;;;;;;;5035649;28;20216;-57
2022/11/16 10:36:57;;;;;;;3.70;2.55;;;;;;;;;;5036001;28;20248;-57
2022/11/16 10:39:24;;;;;;;2.80;2.60;;;;;;;;;;5035329;28;20562;-57
2022/11/16 10:41:51;;;;;;;2.72;2.30;;;;;;;;;;5045633;28;20225;-57
2022/11/16 10:44:20;;;;;;;2.42;2.30;;;;;;;;;;5055537;28;20212;-58
2022/11/16 10:46:52;;;;;;;2.42;2.33;;;;;;;;;;5046102;28;20213;-58
2022/11/16 10:49:21;;;;;;;2.03;1.92;;;;;;;;;;5035618;28;20210;-57
2022/11/16 10:51:49;;;;;;;3.42;2.42;;;;;;;;;;5035630;28;20213;-57
2022/11/16 10:54:16;;;;;;;3.00;2.15;;;;;;;;;;5038673;28;20227;-57
2022/11/16 10:56:44;;;;;;;2.55;2.35;;;;;;;;;;5055774;28;20216;-56
2022/11/16 10:59:11;;;;;;;3.35;2.20;;;;;;;;;;5054688;28;20275;-56
2022/11/16 11:01:38;;;;;;;4.22;3.03;;;;;;;;;;5055068;28;20236;-55
2022/11/16 11:04:15;;;;;;;3.00;2.80;;;;;;;;;;5054838;28;20413;-57
2022/11/16 11:06:42;;;;;;;2.45;2.30;;;;;;;;;;5055584;28;20212;-57
2022/11/16 11:09:20;;;;;;;2.70;2.50;;;;;;;;;;5050477;28;20410;-57
2022/11/16 11:14:40;;;;;;;2.10;2.00;;;;;;;;;;5039351;28;20215;-60
2022/11/16 11:17:10;;;;;;;2.30;2.20;;;;;;;;;;5055707;28;20208;-60
2022/11/16 11:19:37;;;;;;;3.33;2.17;;;;;;;;;;5054959;28;20508;-60
2022/11/16 11:22:03;;;;;;;5.47;2.58;;;;;;;;;;5054152;28;20213;-61
2022/11/16 11:24:31;;;;;;;2.00;1.90;;;;;;;;;;5055293;28;20223;-61
2022/11/16 11:26:58;;;;;;;2.38;2.20;;;;;;;;;;5054922;28;20212;-61
2022/11/16 11:29:27;;;;;;;2.67;2.58;;;;;;;;;;5053252;28;20567;-61
2022/11/16 11:31:54;;;;;;;4.95;3.00;;;;;;;;;;5033602;28;20214;-60
2022/11/16 11:34:21;;;;;;;3.30;3.10;;;;;;;;;;5038804;28;20283;-61
2022/11/16 11:36:49;;;;;;;3.17;2.97;;;;;;;;;;5054234;28;20213;-61
2022/11/16 11:39:27;;;;;;;3.92;3.63;;;;;;;;;;5035092;28;20838;-61
2022/11/16 11:42:01;;;;;;;2.90;2.80;;;;;;;;;;5045560;28;20571;-61
2022/11/16 11:44:30;;;;;;;3.50;3.22;;;;;;;;;;5054191;28;20376;-60
2022/11/16 11:47:02;;;;;;;4.30;4.00;;;;;;;;;;5053753;28;20213;-61
2022/11/16 11:49:31;;;;;;;2.83;2.63;;;;;;;;;;5054551;28;20399;-61
2022/11/16 11:52:01;;;;;;;3.90;2.40;;;;;;;;;;5054794;28;20216;-60
2022/11/16 11:54:30;;;;;;;3.80;3.10;;;;;;;;;;5054080;28;20204;-61
2022/11/16 11:56:57;;;;;;;3.95;2.60;;;;;;;;;;5048461;28;20209;-60
2022/11/16 11:59:25;;;;;;;3.25;2.33;;;;;;;;;;5033590;28;20527;-58
2022/11/16 12:01:58;;;;;;;3.85;2.40;;;;;;;;;;5046855;28;20205;-58
2022/11/16 12:04:46;;;;;;;3.40;2.58;;;;;;;;;;5046125;28;20209;-58
2022/11/16 12:07:17;;;;;;;5.50;2.28;;;;;;;;;;5026826;28;20428;-58
2022/11/16 12:09:47;;;;;;;4.32;2.30;;;;;;;;;;5038465;28;20212;-58
2022/11/16 12:12:21;;;;;;;2.65;1.50;;;;;;;;;;5033528;28;20482;-58
2022/11/16 12:15:11;;;;;;;4.68;3.95;;;;;;;;;;5034410;28;20224;-59
2022/11/16 12:17:44;;;;;;;0.88;0.70;;;;;;;;;;5038163;28;20227;-58
2022/11/16 12:20:21;;;;;;;3.08;1.20;;;;;;;;;;5054096;28;20239;-59
2022/11/16 12:22:59;;;;;;;1.23;1.00;;;;;;;;;;5044545;28;20540;-58
2022/11/16 12:25:28;;;;;;;1.42;0.93;;;;;;;;;;5050915;28;20205;-58
2022/11/16 12:28:04;;;;;;;3.25;0.80;;;;;;;;;;5053012;28;20239;-57
2022/11/16 12:30:32;;;;;;;1.98;0.57;;;;;;;;;;5053145;28;20204;-57
2022/11/16 12:33:04;;;;;;;1.02;0.68;;;;;;;;;;5039955;28;20218;-59
2022/11/16 12:35:40;;;;;;;3.78;0.88;;;;;;;;;;5033768;28;20220;-59
2022/11/16 12:38:13;;;;;;;1.52;0.75;;;;;;;;;;5037580;28;20283;-59
2022/11/16 12:40:43;;;;;;;1.27;0.70;;;;;;;;;;5054218;28;20537;-59
2022/11/16 12:43:16;;;;;;;3.17;0.70;;;;;;;;;;5054058;28;20547;-58
2022/11/16 12:45:53;;;;;;;3.60;0.70;;;;;;;;;;5053627;28;20216;-57
2022/11/16 12:48:29;;;;;;;0.73;0.50;;;;;;;;;;5053571;28;20220;-58
2022/11/16 12:50:57;;;;;;;4.85;0.73;;;;;;;;;;5053873;28;20239;-58
2022/11/16 12:53:37;;;;;;;4.13;0.70;;;;;;;;;;5054265;28;20221;-57
2022/11/16 12:56:09;;;;;;;0.90;0.90;;;;;;;;;;5036219;28;20228;-58
2022/11/16 12:58:40;;;;;;;2.63;0.80;;;;;;;;;;5034149;28;20579;-58
2022/11/16 13:01:11;;;;;;;2.40;0.55;;;;;;;;;;5036379;28;20235;-57
2022/11/16 13:03:42;;;;;;;1.80;0.68;;;;;;;;;;5037750;28;20220;-56
2022/11/16 13:06:09;;;;;;;0.57;0.47;;;;;;;;;;5037551;28;20213;-58
2022/11/16 13:08:40;;;;;;;3.28;1.00;;;;;;;;;;5049666;28;20266;-57
2022/11/16 13:11:09;;;;;;;1.13;0.60;;;;;;;;;;5037389;28;20404;-58
2022/11/16 13:13:36;;;;;;;2.90;1.45;;;;;;;;;;5044018;28;20505;-58
2022/11/16 13:16:05;;;;;;;3.58;0.85;;;;;;;;;;5057027;28;20213;-59
2022/11/16 13:18:32;;;;;;;4.40;1.10;;;;;;;;;;5056272;28;20220;-59
2022/11/16 13:21:04;;;;;;;3.90;1.38;;;;;;;;;;5056709;28;20229;-59
2022/11/16 13:23:39;;;;;;;2.88;0.80;;;;;;;;;;5056264;28;20213;-59
2022/11/16 13:26:09;;;;;;;1.15;0.80;;;;;;;;;;5057464;28;20427;-59
2022/11/16 13:28:37;;;;;;;2.63;0.80;;;;;;;;;;5038740;28;20256;-59
2022/11/16 13:31:06;;;;;;;3.13;0.98;;;;;;;;;;5037206;28;20473;-59
2022/11/16 13:33:38;;;;;;;3.05;1.10;;;;;;;;;;5046084;28;20213;-59
2022/11/16 13:36:25;;;;;;;3.15;0.98;;;;;;;;;;5057368;28;20218;-59
2022/11/16 13:38:52;;;;;;;2.17;0.80;;;;;;;;;;5056464;28;20239;-59
2022/11/16 13:41:30;;;;;;;1.15;0.52;;;;;;;;;;5056954;28;20305;-59
2022/11/16 13:43:57;;;;;;;0.90;0.55;;;;;;;;;;5056658;28;20224;-58
2022/11/16 13:46:23;;;;;;;1.75;0.70;;;;;;;;;;5056468;28;20284;-59
2022/11/16 13:48:50;;;;;;;2.30;1.70;;;;;;;;;;5056811;28;20325;-59
2022/11/16 13:51:18;;;;;;;2.42;2.15;;;;;;;;;;5056599;28;20201;-58
2022/11/16 13:53:47;;;;;;;7.05;1.20;;;;;;;;;;5056860;28;20516;-59
2022/11/16 13:56:15;;;;;;;1.25;1.08;;;;;;;;;;5056780;28;20432;-59
2022/11/16 13:58:44;;;;;;;2.15;0.70;;;;;;;;;;5056485;28;20516;-59
2022/11/16 14:01:14;;;;;;;1.08;0.80;;;;;;;;;;5056487;28;20225;-59
2022/11/16 14:03:40;;;;;;;1.48;0.68;;;;;;;;;;5055895;28;20458;-59
2022/11/16 14:06:27;;;;;;;1.55;0.95;;;;;;;;;;5057188;28;20209;-59
2022/11/16 14:08:54;;;;;;;4.55;1.45;;;;;;;;;;5056173;28;20427;-58
2022/11/16 14:11:47;;;;;;;2.10;1.00;;;;;;;;;;5039778;28;20425;-59
2022/11/16 14:14:33;;;;;;;3.95;1.10;;;;;;;;;;5036519;28;20669;-59
2022/11/16 14:17:01;;;;;;;4.45;1.27;;;;;;;;;;5037117;28;20555;-59
2022/11/16 14:19:47;;;;;;;4.15;1.65;;;;;;;;;;5052860;28;20327;-59
2022/11/16 14:22:21;;;;;;;8.45;3.10;;;;;;;;;;5036707;28;20288;-59
2022/11/16 14:24:50;;;;;;;4.65;1.80;;;;;;;;;;5036881;28;20413;-59
2022/11/16 14:27:19;;;;;;;7.18;2.45;;;;;;;;;;5036526;28;20224;-59
2022/11/16 14:29:53;;;;;;;7.03;2.50;;;;;;;;;;5048018;28;20223;-57
2022/11/16 14:32:22;;;;;;;7.43;1.13;;;;;;;;;;5056467;28;20205;-58
2022/11/16 14:34:49;;;;;;;5.07;1.33;;;;;;;;;;5037022;28;20462;-59
2022/11/16 14:37:31;;;;;;;5.22;1.55;;;;;;;;;;5036257;28;20490;-59
2022/11/16 14:40:01;;;;;;;1.55;0.73;;;;;;;;;;5036617;28;20230;-59
2022/11/16 14:42:29;;;;;;;1.58;0.73;;;;;;;;;;5036036;28;20448;-59
2022/11/16 14:44:59;;;;;;;2.58;0.90;;;;;;;;;;5055087;28;20213;-59
2022/11/16 14:47:28;;;;;;;2.33;1.00;;;;;;;;;;5055702;28;20408;-59
2022/11/16 14:49:55;;;;;;;3.42;1.30;;;;;;;;;;5055780;28;20554;-59
2022/11/16 14:52:25;;;;;;;3.15;1.50;;;;;;;;;;5055631;28;20532;-59
2022/11/16 14:54:53;;;;;;;3.42;1.80;;;;;;;;;;5056346;28;20213;-59
2022/11/16 14:57:20;;;;;;;3.10;1.05;;;;;;;;;;5056072;28;20220;-59
2022/11/16 14:59:46;;;;;;;4.18;1.55;;;;;;;;;;5055643;28;20570;-58
2022/11/16 15:02:17;;;;;;;2.45;1.27;;;;;;;;;;5055490;28;20452;-59
2022/11/16 15:04:45;;;;;;;2.97;1.58;;;;;;;;;;5055767;28;20212;-59
2022/11/16 15:07:13;;;;;;;3.53;2.08;;;;;;;;;;5055554;28;20208;-59
2022/11/16 15:09:41;;;;;;;2.47;1.50;;;;;;;;;;5055747;28;20574;-59
2022/11/16 15:14:58;;;;;;;2.33;1.30;;;;;;;;;;5041467;28;20587;-58
2022/11/16 15:17:25;;;;;;;3.70;1.58;;;;;;;;;;5035808;28;20210;-58
2022/11/16 15:19:56;;;;;;;1.73;1.60;;;;;;;;;;5042607;28;20228;-57
2022/11/16 15:22:22;;;;;;;3.78;1.48;;;;;;;;;;5049793;28;20217;-58
2022/11/16 15:24:58;;;;;;;5.35;1.60;;;;;;;;;;5047892;28;20552;-58
2022/11/16 15:27:56;;;;;;;2.45;1.70;;;;;;;;;;5040529;28;20228;-58
2022/11/16 15:30:26;;;;;;;3.13;1.70;;;;;;;;;;5052454;28;20447;-59